KCAO

Clayton Municipal Arpk Airport

Clayton, New Mexico, USA
METAR KCAO 171555Z AUTO 03015KT 9SM FEW014 23/19 A3027 RMK AO2 SLP183 T02330189
Observed Flight Rules
Aug-17 @ 15:55 UTC (57 minutes ago) Visual Flight Rules
Wind Visibility Clouds
30° at 15 knots 9 miles
  • Few at 1,400' AGL
Temperatures Readings
Current 23°C / 73°F
Dewpoint 19°C / 66°F
Humidity 78%
Altimeter 30.27" Hg
Pressure 1018.3 hPa
Elevation 1514
METAR KCAO 171555Z AUTO 03015KT 9SM FEW014 23/19 A3027 RMK AO2 SLP183 T02330189
Observed Flight Rules
Aug-17 @ 15:55 UTC
(57 minutes ago)
VFR
Wind Visibility
30° at 15 knots 9 miles
Clouds
  • Few at 1,400' AGL
Temperature Dewpoint
23°C / 73°F 19°C / 66°F
Humidity Altimeter Pressure
78% 30.27" Hg 1018.3 hPa